Time;durP1;ratioP1;P1;durP2;ratioP2;P2;SDS_P1;SDS_P2;PMS_P1;PMS_P2;Temp;Humidity;BMP_temperature;BMP_pressure;BME280_temperature;BME280_humidity;BME280_pressure;Samples;Min_cycle;Max_cycle;Signal;HPM_P1;HPM_P2
2021/06/02 00:00:36;;;;;;;6.60;5.17;;;14.70;99.90;;;;;;4994956;28;20487;-56
2021/06/02 00:03:04;;;;;;;5.80;5.20;;;14.80;99.90;;;;;;4995069;28;20473;-55
2021/06/02 00:05:32;;;;;;;9.20;5.27;;;14.90;99.90;;;;;;4995822;28;20967;-55
2021/06/02 00:08:00;;;;;;;6.30;5.17;;;14.90;99.90;;;;;;4999312;28;20457;-55
2021/06/02 00:10:27;;;;;;;8.70;5.60;;;14.90;99.90;;;;;;5017809;28;20480;-56
2021/06/02 00:12:54;;;;;;;7.10;5.30;;;15.00;99.90;;;;;;5027481;28;20473;-55
2021/06/02 00:15:20;;;;;;;8.23;5.37;;;15.00;99.90;;;;;;5025947;28;20453;-55
2021/06/02 00:17:47;;;;;;;6.80;5.70;;;14.90;99.90;;;;;;5026608;28;20449;-55
2021/06/02 00:20:14;;;;;;;9.43;4.80;;;14.90;99.90;;;;;;5023693;28;20465;-56
2021/06/02 00:22:41;;;;;;;5.40;4.60;;;14.80;99.90;;;;;;5023998;28;20456;-55
2021/06/02 00:25:10;;;;;;;6.93;5.53;;;14.80;99.90;;;;;;5023185;28;20453;-55
2021/06/02 00:27:40;;;;;;;7.53;5.10;;;14.70;99.90;;;;;;5006211;28;20450;-56
2021/06/02 00:30:09;;;;;;;5.80;4.43;;;14.60;99.90;;;;;;4992417;28;21010;-56
2021/06/02 00:32:37;;;;;;;7.50;4.70;;;14.60;99.90;;;;;;4992234;28;20457;-55
2021/06/02 00:35:05;;;;;;;6.17;5.10;;;14.60;99.90;;;;;;4993059;28;20454;-55
2021/06/02 00:37:32;;;;;;;6.90;4.93;;;14.60;99.90;;;;;;5011903;28;20449;-55
2021/06/02 00:40:00;;;;;;;6.10;5.00;;;14.60;99.90;;;;;;5011629;28;20477;-56
2021/06/02 00:42:31;;;;;;;9.20;5.10;;;14.40;99.90;;;;;;5006709;28;20887;-55
2021/06/02 00:44:59;;;;;;;5.90;5.30;;;14.40;99.90;;;;;;4999200;28;20955;-55
2021/06/02 00:47:25;;;;;;;7.50;5.73;;;14.10;99.90;;;;;;4991988;28;20458;-56
2021/06/02 00:49:52;;;;;;;6.97;5.40;;;14.00;99.90;;;;;;4993651;28;20553;-55
2021/06/02 00:52:19;;;;;;;9.70;5.50;;;14.10;99.90;;;;;;5011647;28;20477;-54
2021/06/02 00:54:45;;;;;;;9.10;5.10;;;14.20;99.90;;;;;;5013290;28;20492;-56
2021/06/02 00:57:15;;;;;;;11.87;5.70;;;14.30;99.90;;;;;;5012172;28;20461;-55
2021/06/02 00:59:44;;;;;;;8.33;5.60;;;14.40;99.90;;;;;;5010905;28;20474;-56
2021/06/02 01:02:14;;;;;;;7.87;5.53;;;14.40;99.90;;;;;;5011201;28;20453;-55
2021/06/02 01:04:43;;;;;;;7.73;5.80;;;14.40;99.90;;;;;;5011429;28;20446;-55
2021/06/02 01:07:11;;;;;;;10.03;5.63;;;14.30;99.90;;;;;;5011735;28;20465;-55
2021/06/02 01:09:40;;;;;;;9.40;5.10;;;14.30;99.90;;;;;;5014983;28;20477;-55
2021/06/02 01:12:08;;;;;;;9.10;6.27;;;14.20;99.90;;;;;;5015989;28;20461;-55
2021/06/02 01:14:36;;;;;;;7.73;5.60;;;14.20;99.90;;;;;;5000454;28;20477;-55
2021/06/02 01:17:04;;;;;;;7.30;5.80;;;14.20;99.90;;;;;;5013412;28;20445;-55
2021/06/02 01:19:31;;;;;;;10.87;6.23;;;14.10;99.90;;;;;;5014833;28;20528;-56
2021/06/02 01:22:01;;;;;;;9.70;6.33;;;14.10;99.90;;;;;;5014903;28;20449;-55
2021/06/02 01:24:29;;;;;;;9.53;5.77;;;14.10;99.90;;;;;;5014956;28;20453;-55
2021/06/02 01:26:57;;;;;;;6.67;5.80;;;14.20;99.90;;;;;;5014844;28;20453;-55
2021/06/02 01:29:24;;;;;;;7.13;5.50;;;14.10;99.90;;;;;;5010393;28;20898;-55
2021/06/02 01:32:05;;;;;;;6.00;5.00;;;14.10;99.90;;;;;;5006245;28;20508;-56
2021/06/02 01:34:59;;;;;;;6.50;5.80;;;14.00;99.90;;;;;;5014383;28;20492;-55
2021/06/02 01:37:48;;;;;;;5.60;5.10;;;14.00;99.90;;;;;;5014517;28;20951;-55
2021/06/02 01:40:34;;;;;;;6.30;5.10;;;14.00;99.90;;;;;;5014221;28;20481;-54
2021/06/02 01:43:27;;;;;;;6.87;5.30;;;13.90;99.90;;;;;;5014387;28;20449;-54
2021/06/02 01:46:08;;;;;;;7.77;5.17;;;13.80;99.90;;;;;;5014155;28;20459;-55
2021/06/02 01:48:43;;;;;;;10.80;5.50;;;13.70;99.90;;;;;;5006403;28;20453;-55
2021/06/02 01:51:42;;;;;;;6.90;4.80;;;13.60;99.90;;;;;;5014035;28;20469;-56
2021/06/02 01:54:43;;;;;;;5.37;4.87;;;13.60;99.90;;;;;;4994626;28;20494;-54
2021/06/02 01:57:31;;;;;;;7.53;4.70;;;13.70;99.90;;;;;;4995043;28;20538;-55
2021/06/02 02:00:48;;;;;;;6.70;5.20;;;13.70;99.90;;;;;;4994537;28;20497;-55
2021/06/02 02:03:55;;;;;;;7.43;5.20;;;13.50;99.90;;;;;;4994173;28;20449;-55
2021/06/02 02:06:53;;;;;;;5.43;4.63;;;13.60;99.90;;;;;;5001046;28;20522;-55
2021/06/02 02:09:30;;;;;;;6.10;5.10;;;13.60;99.90;;;;;;4994575;28;20462;-55
2021/06/02 02:12:16;;;;;;;5.53;5.03;;;13.40;99.90;;;;;;4994362;28;20457;-55
2021/06/02 02:14:58;;;;;;;6.87;4.87;;;13.50;99.90;;;;;;4994592;28;20577;-54
2021/06/02 02:17:53;;;;;;;4.63;4.20;;;13.50;99.90;;;;;;4994552;28;20983;-56
2021/06/02 02:20:29;;;;;;;5.70;4.63;;;13.50;99.90;;;;;;4993810;28;20485;-56
2021/06/02 02:23:24;;;;;;;5.50;4.90;;;13.40;99.90;;;;;;5010267;28;20473;-55
2021/06/02 02:25:58;;;;;;;5.67;5.17;;;13.50;99.90;;;;;;4997016;28;20460;-55
2021/06/02 02:28:41;;;;;;;6.23;4.40;;;13.40;99.90;;;;;;5013673;28;20446;-55
2021/06/02 02:31:18;;;;;;;5.53;4.70;;;13.30;99.90;;;;;;5013441;28;20912;-54
2021/06/02 02:33:49;;;;;;;6.17;5.07;;;13.40;99.90;;;;;;5013116;28;20508;-55
2021/06/02 02:36:22;;;;;;;5.47;4.70;;;13.30;99.90;;;;;;5010968;28;20457;-55
2021/06/02 02:39:01;;;;;;;7.13;5.10;;;13.30;99.90;;;;;;5009335;28;20547;-55
2021/06/02 02:41:51;;;;;;;6.80;5.50;;;13.30;99.90;;;;;;5012985;28;20453;-55
2021/06/02 02:44:49;;;;;;;6.33;4.93;;;13.20;99.90;;;;;;5011730;28;20445;-55
2021/06/02 02:47:22;;;;;;;5.17;4.63;;;13.10;99.90;;;;;;5007323;28;20462;-55
2021/06/02 02:49:58;;;;;;;6.13;4.87;;;13.10;99.90;;;;;;5023600;22;20494;-49
2021/06/02 02:52:39;;;;;;;7.50;4.90;;;13.20;99.90;;;;;;4992664;28;20451;-50
2021/06/02 02:55:11;;;;;;;5.90;5.40;;;13.20;99.90;;;;;;4977236;28;20486;-50
2021/06/02 02:57:47;;;;;;;9.10;5.60;;;13.10;99.90;;;;;;4975772;28;20447;-50
2021/06/02 03:00:16;;;;;;;5.23;4.03;;;13.10;99.90;;;;;;5012815;28;20473;-50
2021/06/02 03:02:47;;;;;;;5.83;5.10;;;13.10;99.90;;;;;;4997308;28;20501;-50
2021/06/02 03:05:18;;;;;;;7.40;4.97;;;13.10;99.90;;;;;;4973734;28;20526;-50
2021/06/02 03:07:50;;;;;;;5.90;4.50;;;13.10;99.90;;;;;;4988635;28;20461;-50
2021/06/02 03:10:20;;;;;;;5.07;4.57;;;13.10;99.90;;;;;;4993142;28;20501;-50
2021/06/02 03:12:56;;;;;;;6.50;5.13;;;13.10;99.90;;;;;;5001541;28;20568;-50
2021/06/02 03:15:42;;;;;;;8.43;5.40;;;13.10;99.90;;;;;;5012598;28;20441;-50
2021/06/02 03:18:44;;;;;;;6.80;5.67;;;13.00;99.90;;;;;;4983676;28;20998;-51
2021/06/02 03:21:29;;;;;;;7.43;6.03;;;13.00;99.90;;;;;;4933175;29;20470;-50
2021/06/02 03:24:08;;;;;;;8.20;5.63;;;13.00;99.90;;;;;;4984114;28;20450;-50
2021/06/02 03:26:38;;;;;;;6.80;5.53;;;12.90;99.90;;;;;;4994606;28;20489;-50
2021/06/02 03:29:19;;;;;;;8.30;5.90;;;13.00;99.90;;;;;;4993427;28;20462;-49
2021/06/02 03:32:06;;;;;;;6.83;5.43;;;12.90;99.90;;;;;;4991710;28;20956;-49
2021/06/02 03:34:44;;;;;;;12.17;6.17;;;12.90;99.90;;;;;;4992677;28;20500;-50
2021/06/02 03:37:54;;;;;;;6.73;5.50;;;12.90;99.90;;;;;;4992112;28;20478;-50
2021/06/02 03:40:30;;;;;;;7.77;5.73;;;12.90;99.90;;;;;;4913331;29;20553;-50
2021/06/02 03:43:06;;;;;;;7.00;5.70;;;12.90;99.90;;;;;;4986269;28;20469;-50
2021/06/02 03:45:49;;;;;;;8.60;6.20;;;12.90;99.90;;;;;;4994505;28;20992;-50
2021/06/02 03:48:28;;;;;;;11.73;6.90;;;12.90;99.90;;;;;;4991697;28;20489;-50
2021/06/02 03:51:06;;;;;;;6.73;5.60;;;12.90;99.90;;;;;;4990111;28;20446;-50
2021/06/02 03:53:52;;;;;;;9.27;6.67;;;13.00;99.90;;;;;;4991413;28;20492;-51
2021/06/02 03:56:34;;;;;;;7.40;6.20;;;13.00;99.90;;;;;;4991740;28;20508;-50
2021/06/02 03:59:06;;;;;;;9.20;6.50;;;12.80;99.90;;;;;;4986385;28;20489;-50
2021/06/02 04:01:51;;;;;;;9.20;6.40;;;12.90;99.90;;;;;;4987609;28;20434;-50
2021/06/02 04:04:28;;;;;;;11.33;6.53;;;13.00;99.90;;;;;;4993859;28;20477;-50
2021/06/02 04:07:05;;;;;;;9.30;6.43;;;13.00;99.90;;;;;;4991029;28;20829;-50
2021/06/02 04:09:42;;;;;;;10.50;6.40;;;13.00;99.90;;;;;;4989550;28;20469;-50
2021/06/02 04:12:19;;;;;;;10.00;7.20;;;13.10;99.90;;;;;;4991583;28;20438;-50
2021/06/02 04:14:55;;;;;;;7.00;6.23;;;13.00;99.90;;;;;;4991486;28;20485;-50
2021/06/02 04:17:24;;;;;;;11.67;5.80;;;13.10;99.90;;;;;;4992227;28;20850;-51
2021/06/02 04:19:52;;;;;;;8.33;6.53;;;13.20;99.90;;;;;;4989030;28;20510;-50
2021/06/02 04:22:20;;;;;;;8.80;6.30;;;13.20;99.90;;;;;;4991381;28;20459;-50
2021/06/02 04:24:47;;;;;;;13.57;6.90;;;13.30;99.90;;;;;;4992100;28;20847;-51
2021/06/02 04:27:15;;;;;;;10.70;6.40;;;13.30;99.90;;;;;;4985898;28;20470;-51
2021/06/02 04:29:46;;;;;;;11.87;6.20;;;13.40;99.90;;;;;;4990677;28;20603;-50
2021/06/02 04:32:13;;;;;;;7.67;6.73;;;13.40;99.90;;;;;;4992692;28;20446;-48
2021/06/02 04:34:41;;;;;;;8.43;5.83;;;13.50;99.90;;;;;;4990934;28;20478;-50
2021/06/02 04:37:10;;;;;;;8.20;6.00;;;13.60;99.90;;;;;;4992984;28;20504;-50
2021/06/02 04:39:39;;;;;;;8.60;6.57;;;13.70;99.90;;;;;;4991606;28;20489;-49
2021/06/02 04:42:07;;;;;;;9.63;6.50;;;13.90;99.90;;;;;;4989648;28;20469;-49
2021/06/02 04:44:35;;;;;;;8.20;6.80;;;13.90;99.90;;;;;;4994123;28;20504;-51
2021/06/02 04:47:03;;;;;;;10.13;7.10;;;14.10;99.90;;;;;;4993658;28;20453;-51
2021/06/02 04:49:39;;;;;;;8.00;6.53;;;14.40;99.90;;;;;;4994744;28;20540;-51
2021/06/02 04:53:10;;;;;;;12.83;6.93;;;14.50;99.90;;;;;;4994266;28;20446;-51
2021/06/02 04:56:02;;;;;;;10.53;7.07;;;14.60;99.90;;;;;;4994456;28;20482;-50
2021/06/02 04:59:03;;;;;;;9.73;6.90;;;15.30;99.90;;;;;;4993813;28;20450;-50
2021/06/02 05:02:01;;;;;;;9.80;5.90;;;16.40;99.90;;;;;;4990750;28;20454;-50
2021/06/02 05:05:03;;;;;;;7.90;6.20;;;17.70;99.90;;;;;;4994537;28;20451;-52
2021/06/02 05:08:23;;;;;;;8.90;6.47;;;18.80;99.90;;;;;;4993932;28;20454;-49
2021/06/02 05:11:30;;;;;;;7.53;6.40;;;20.00;99.90;;;;;;4953707;29;20459;-50
2021/06/02 05:14:42;;;;;;;8.93;6.00;;;20.90;99.90;;;;;;4950683;28;20479;-51
2021/06/02 05:17:35;;;;;;;7.40;5.83;;;21.20;99.90;;;;;;4958067;28;20889;-52
2021/06/02 05:24:15;;;;;;;9.10;5.30;;;22.20;99.40;;;;;;4994349;28;20436;-52
2021/06/02 05:27:23;;;;;;;7.13;4.90;;;22.90;98.10;;;;;;4991862;28;20450;-51
2021/06/02 05:30:27;;;;;;;5.23;4.80;;;23.10;97.60;;;;;;4994522;28;20470;-51
2021/06/02 05:33:38;;;;;;;7.03;5.40;;;23.70;96.30;;;;;;4993471;28;20446;-52
2021/06/02 05:36:39;;;;;;;6.40;4.80;;;24.10;95.40;;;;;;4994115;28;20439;-52
2021/06/02 05:39:15;;;;;;;8.07;5.07;;;24.20;93.50;;;;;;4990633;28;20493;-52
2021/06/02 05:42:11;;;;;;;10.43;5.00;;;23.40;93.70;;;;;;4991170;28;20816;-52
2021/06/02 05:45:19;;;;;;;5.47;4.97;;;23.00;94.30;;;;;;4993326;28;20457;-52
2021/06/02 05:48:28;;;;;;;5.40;4.80;;;23.00;94.80;;;;;;4993767;28;20457;-51
2021/06/02 05:51:50;;;;;;;5.80;4.67;;;23.90;93.50;;;;;;4993195;28;20448;-53
2021/06/02 05:54:56;;;;;;;4.93;4.43;;;23.90;92.50;;;;;;4991121;28;20565;-52
2021/06/02 05:58:11;;;;;;;5.70;4.20;;;24.40;91.70;;;;;;4976409;28;20450;-52
2021/06/02 06:01:17;;;;;;;6.30;4.73;;;24.60;92.70;;;;;;4991641;28;20474;-52
2021/06/02 06:04:21;;;;;;;5.00;4.50;;;24.70;91.50;;;;;;4993957;28;20797;-53
2021/06/02 06:07:00;;;;;;;6.50;4.20;;;23.20;93.50;;;;;;4994009;28;20442;-51
2021/06/02 06:10:01;;;;;;;4.93;4.00;;;23.50;92.00;;;;;;4993978;28;20983;-51
2021/06/02 06:13:07;;;;;;;6.60;4.60;;;24.30;91.40;;;;;;4992294;28;20504;-52
2021/06/02 06:15:53;;;;;;;6.37;4.60;;;25.20;90.00;;;;;;4993697;28;20482;-51
2021/06/02 06:18:52;;;;;;;4.40;4.00;;;25.30;89.40;;;;;;4989873;28;20442;-52
2021/06/02 06:22:05;;;;;;;5.40;4.63;;;25.80;90.50;;;;;;4991067;28;20461;-52
2021/06/02 06:24:39;;;;;;;5.40;4.90;;;26.20;88.80;;;;;;4989688;28;20525;-52
2021/06/02 06:27:11;;;;;;;4.93;4.50;;;25.60;90.00;;;;;;4993418;28;20445;-52
2021/06/02 06:29:52;;;;;;;5.23;4.73;;;26.00;84.60;;;;;;4993589;28;20466;-52
2021/06/02 06:32:21;;;;;;;5.23;4.73;;;26.30;85.80;;;;;;4989449;28;20443;-53
2021/06/02 06:34:49;;;;;;;4.87;4.47;;;26.80;86.10;;;;;;4993366;28;20541;-52
2021/06/02 06:37:19;;;;;;;6.07;5.37;;;27.00;85.30;;;;;;4993299;28;20449;-53
2021/06/02 06:39:51;;;;;;;5.57;4.53;;;27.10;83.90;;;;;;4992986;28;20975;-52
2021/06/02 06:42:21;;;;;;;7.40;4.60;;;27.40;83.60;;;;;;4990813;28;20465;-52
2021/06/02 06:44:49;;;;;;;8.33;4.20;;;27.40;79.80;;;;;;4993250;28;20948;-53
2021/06/02 06:47:17;;;;;;;4.53;4.10;;;27.00;81.10;;;;;;4989350;28;20445;-52
2021/06/02 06:49:48;;;;;;;4.90;4.10;;;27.20;84.40;;;;;;4992984;28;20478;-52
2021/06/02 06:52:18;;;;;;;6.03;4.40;;;27.20;82.40;;;;;;4991516;28;20477;-52
2021/06/02 06:54:45;;;;;;;5.17;4.67;;;27.40;83.50;;;;;;4993068;28;20556;-52
2021/06/02 06:57:12;;;;;;;5.73;4.63;;;27.50;83.70;;;;;;4993161;28;20443;-52
2021/06/02 06:59:39;;;;;;;5.77;4.50;;;27.30;80.70;;;;;;4986289;28;20474;-52
2021/06/02 07:02:07;;;;;;;6.30;5.00;;;26.90;82.90;;;;;;4988839;28;20984;-53
2021/06/02 07:04:35;;;;;;;8.73;5.10;;;27.20;80.70;;;;;;4992328;28;20438;-53
2021/06/02 07:07:02;;;;;;;6.10;4.87;;;27.60;82.20;;;;;;4991639;28;20974;-53
2021/06/02 07:09:30;;;;;;;5.70;5.10;;;27.20;81.60;;;;;;4992465;28;20881;-53
2021/06/02 07:11:58;;;;;;;10.07;5.60;;;27.20;80.50;;;;;;4988242;28;20451;-52
2021/06/02 07:14:29;;;;;;;5.37;4.50;;;27.20;81.40;;;;;;4989682;28;20565;-52
2021/06/02 07:17:03;;;;;;;5.70;5.20;;;27.50;80.70;;;;;;4996714;28;20454;-52
2021/06/02 07:19:30;;;;;;;6.10;4.00;;;27.80;77.70;;;;;;4992747;28;20521;-53
2021/06/02 07:21:58;;;;;;;7.47;4.60;;;27.50;80.00;;;;;;4981793;28;20455;-53
2021/06/02 07:24:25;;;;;;;5.50;5.00;;;27.50;77.80;;;;;;4988466;28;20533;-52
2021/06/02 07:26:54;;;;;;;5.63;4.83;;;27.90;78.10;;;;;;4992239;28;20451;-51
2021/06/02 07:29:20;;;;;;;7.33;5.00;;;28.30;78.40;;;;;;4992662;28;20475;-52
2021/06/02 07:31:47;;;;;;;5.13;4.63;;;28.50;79.20;;;;;;4991679;28;20839;-51
2021/06/02 07:34:13;;;;;;;6.00;5.40;;;28.60;79.80;;;;;;4991734;28;20529;-51
2021/06/02 07:36:40;;;;;;;7.33;5.10;;;28.10;81.30;;;;;;4982376;28;20451;-53
2021/06/02 07:39:07;;;;;;;6.53;5.03;;;28.10;79.40;;;;;;4995183;28;20836;-52
2021/06/02 07:41:33;;;;;;;5.60;5.10;;;28.30;76.50;;;;;;4999573;28;20958;-52
2021/06/02 07:44:01;;;;;;;5.50;4.20;;;28.30;75.50;;;;;;5009920;28;20457;-52
2021/06/02 07:46:27;;;;;;;4.90;3.80;;;28.40;80.10;;;;;;5005789;28;20458;-52
2021/06/02 07:48:54;;;;;;;6.13;4.60;;;28.30;78.50;;;;;;4991673;28;20908;-53
2021/06/02 07:51:24;;;;;;;6.93;4.90;;;28.10;78.30;;;;;;4992056;28;20499;-52
2021/06/02 07:53:50;;;;;;;7.43;5.00;;;28.10;79.70;;;;;;4992533;28;20540;-53
2021/06/02 07:56:16;;;;;;;6.00;4.53;;;28.00;78.30;;;;;;4998608;28;20451;-52
2021/06/02 07:58:43;;;;;;;7.00;4.30;;;28.10;77.80;;;;;;4992117;28;20475;-53
2021/06/02 08:01:11;;;;;;;6.67;4.80;;;28.50;76.70;;;;;;4996913;28;20505;-52
2021/06/02 08:03:37;;;;;;;5.03;4.53;;;28.60;76.40;;;;;;4991866;28;20574;-52
2021/06/02 08:06:04;;;;;;;7.77;4.60;;;28.70;77.50;;;;;;4993500;28;20459;-53
2021/06/02 08:08:31;;;;;;;6.53;5.80;;;28.90;75.60;;;;;;5000846;28;20459;-52
2021/06/02 08:10:57;;;;;;;12.60;5.43;;;28.80;74.70;;;;;;4995652;28;20528;-53
2021/06/02 08:13:24;;;;;;;5.30;4.90;;;28.80;76.90;;;;;;4992357;28;20451;-52
2021/06/02 08:15:50;;;;;;;7.40;5.73;;;29.40;78.70;;;;;;5005645;28;20457;-53
2021/06/02 08:18:18;;;;;;;5.90;4.70;;;28.70;75.30;;;;;;5013436;28;20458;-53
2021/06/02 08:20:45;;;;;;;5.80;5.30;;;29.00;79.20;;;;;;5010838;28;20833;-53
2021/06/02 08:23:11;;;;;;;8.70;5.27;;;29.00;76.30;;;;;;5015346;28;20445;-50
2021/06/02 08:25:38;;;;;;;4.70;4.30;;;28.30;77.30;;;;;;5003936;28;20451;-53
2021/06/02 08:28:05;;;;;;;10.07;5.40;;;28.50;81.10;;;;;;4996617;28;20454;-52
2021/06/02 08:30:31;;;;;;;5.80;4.80;;;28.60;81.80;;;;;;4996347;28;20540;-53
2021/06/02 08:32:58;;;;;;;8.73;4.93;;;29.00;77.80;;;;;;4996579;28;20447;-52
2021/06/02 08:35:26;;;;;;;10.23;5.90;;;28.80;78.90;;;;;;5006185;28;20489;-52
2021/06/02 08:37:55;;;;;;;5.70;5.20;;;29.30;74.20;;;;;;5015283;28;20958;-51
2021/06/02 08:40:22;;;;;;;5.10;4.60;;;29.90;71.80;;;;;;4995914;28;20476;-52
2021/06/02 08:42:48;;;;;;;5.87;5.40;;;30.10;71.40;;;;;;4996592;28;20461;-53
2021/06/02 08:45:17;;;;;;;5.70;5.20;;;29.50;73.00;;;;;;4995612;28;20442;-52
2021/06/02 08:47:44;;;;;;;6.80;5.33;;;29.20;74.10;;;;;;4995898;28;20462;-52
2021/06/02 08:50:13;;;;;;;6.60;4.97;;;28.90;72.30;;;;;;5051472;22;20495;-56
2021/06/02 08:52:42;;;;;;;5.83;5.00;;;28.30;79.90;;;;;;5047794;28;20444;-57
2021/06/02 08:55:12;;;;;;;5.67;5.17;;;29.10;75.70;;;;;;5054038;28;20483;-57
2021/06/02 08:57:40;;;;;;;9.30;6.97;;;29.80;75.60;;;;;;5054128;28;20451;-58
2021/06/02 09:00:09;;;;;;;7.03;5.40;;;29.90;76.90;;;;;;5025395;28;20481;-58
2021/06/02 09:02:37;;;;;;;6.30;5.20;;;29.80;73.40;;;;;;5020929;28;20467;-57
2021/06/02 09:05:05;;;;;;;5.80;5.20;;;29.40;78.70;;;;;;5034792;28;20448;-57
2021/06/02 09:07:33;;;;;;;5.87;5.20;;;29.10;80.60;;;;;;5033840;28;20452;-56
2021/06/02 09:10:02;;;;;;;6.20;5.60;;;27.50;82.10;;;;;;5019498;28;20476;-57
2021/06/02 09:12:33;;;;;;;6.27;5.10;;;27.20;83.80;;;;;;5020011;28;20448;-57
2021/06/02 09:15:06;;;;;;;5.83;5.10;;;27.50;84.60;;;;;;5034366;28;20488;-57
2021/06/02 09:17:46;;;;;;;6.03;5.43;;;27.80;84.20;;;;;;5033770;28;20448;-58
2021/06/02 09:20:13;;;;;;;8.27;5.27;;;28.80;82.00;;;;;;5018121;28;20477;-57
2021/06/02 09:22:40;;;;;;;5.30;4.80;;;29.00;83.50;;;;;;5021338;28;20448;-57
2021/06/02 09:25:09;;;;;;;5.50;5.00;;;29.20;81.10;;;;;;5034424;28;20445;-57
2021/06/02 09:27:44;;;;;;;6.30;4.70;;;30.10;78.30;;;;;;5034286;28;20460;-58
2021/06/02 09:30:13;;;;;;;9.70;5.40;;;30.80;77.90;;;;;;5033261;28;20472;-57
2021/06/02 09:32:45;;;;;;;8.37;5.80;;;29.10;81.90;;;;;;5033895;28;20876;-57
2021/06/02 09:35:12;;;;;;;7.47;5.50;;;28.10;88.30;;;;;;5033971;28;21016;-57
2021/06/02 09:37:50;;;;;;;7.63;5.90;;;27.80;85.80;;;;;;5033967;28;20559;-57
2021/06/02 09:40:24;;;;;;;6.50;5.77;;;28.30;86.10;;;;;;5033343;28;20476;-57
2021/06/02 09:42:50;;;;;;;6.50;5.90;;;27.50;85.40;;;;;;5033611;28;20460;-56
2021/06/02 09:45:17;;;;;;;5.97;5.47;;;27.40;87.40;;;;;;5033875;28;20455;-57
2021/06/02 09:47:45;;;;;;;7.80;4.80;;;26.20;90.00;;;;;;5033520;28;20453;-57
2021/06/02 09:50:14;;;;;;;7.20;5.10;;;26.40;91.30;;;;;;5032778;28;20495;-56
2021/06/02 09:52:44;;;;;;;11.20;5.50;;;27.10;88.80;;;;;;5033392;28;20803;-57
2021/06/02 09:55:22;;;;;;;5.10;4.60;;;27.30;86.60;;;;;;5033849;28;20485;-57
2021/06/02 09:57:55;;;;;;;5.43;4.77;;;28.20;85.10;;;;;;5033741;28;20449;-57
2021/06/02 10:00:22;;;;;;;5.53;4.83;;;28.30;84.90;;;;;;5033012;28;20499;-58
2021/06/02 10:02:59;;;;;;;5.90;5.30;;;29.00;81.50;;;;;;5033323;28;20452;-57
2021/06/02 10:05:34;;;;;;;28.57;8.10;;;28.60;87.10;;;;;;5033165;28;20531;-57
2021/06/02 10:08:01;;;;;;;7.67;5.63;;;27.10;86.40;;;;;;5033336;28;20551;-57
2021/06/02 10:10:29;;;;;;;6.83;4.20;;;27.10;87.50;;;;;;5032889;28;20472;-56
2021/06/02 10:13:02;;;;;;;4.20;3.53;;;26.60;86.60;;;;;;5033289;28;20448;-57
2021/06/02 10:15:30;;;;;;;3.90;3.60;;;27.40;84.00;;;;;;5032931;28;20480;-58
2021/06/02 10:17:57;;;;;;;4.93;3.87;;;28.40;78.60;;;;;;5032564;28;20455;-57
2021/06/02 10:20:24;;;;;;;4.83;4.23;;;29.10;77.50;;;;;;5032987;28;20475;-59
2021/06/02 10:22:55;;;;;;;4.37;3.93;;;29.50;77.70;;;;;;5033248;28;20459;-58
2021/06/02 10:25:23;;;;;;;8.03;4.67;;;29.30;78.60;;;;;;5032816;28;20959;-57
2021/06/02 10:27:56;;;;;;;4.77;4.27;;;28.30;80.30;;;;;;5032535;28;20506;-57
2021/06/02 10:30:25;;;;;;;5.00;3.83;;;28.30;82.30;;;;;;5031230;28;20551;-58
2021/06/02 10:32:54;;;;;;;5.20;3.90;;;27.60;85.90;;;;;;5031533;28;20452;-57
2021/06/02 10:35:21;;;;;;;5.43;4.13;;;28.30;80.20;;;;;;5032020;28;20920;-58
2021/06/02 10:37:47;;;;;;;4.93;4.10;;;28.80;78.60;;;;;;5030613;28;20514;-57
2021/06/02 10:40:19;;;;;;;6.00;3.90;;;28.90;81.90;;;;;;5031628;28;20465;-57
2021/06/02 10:43:03;;;;;;;4.47;3.90;;;27.90;83.10;;;;;;5031485;28;20453;-57
2021/06/02 10:45:32;;;;;;;4.33;3.93;;;28.40;80.90;;;;;;5030133;28;20455;-58
2021/06/02 10:48:01;;;;;;;4.60;4.20;;;27.90;84.90;;;;;;5012267;28;20457;-58
2021/06/02 10:50:32;;;;;;;4.03;3.73;;;27.50;83.30;;;;;;5027920;28;20480;-57
2021/06/02 10:52:59;;;;;;;6.50;3.63;;;26.80;87.20;;;;;;5031711;28;20460;-57
2021/06/02 10:55:41;;;;;;;4.90;3.90;;;26.70;87.90;;;;;;5020605;28;20485;-56
2021/06/02 10:58:31;;;;;;;4.10;3.60;;;26.20;84.70;;;;;;5012231;28;20446;-57
2021/06/02 11:01:16;;;;;;;3.70;3.40;;;25.50;87.50;;;;;;5012495;28;20485;-57
2021/06/02 11:03:44;;;;;;;6.70;3.17;;;26.30;90.50;;;;;;5012694;28;20504;-57
2021/06/02 11:06:41;;;;;;;3.83;3.53;;;26.50;84.10;;;;;;5028627;28;20451;-56
2021/06/02 11:09:21;;;;;;;5.63;3.67;;;26.60;86.50;;;;;;4971475;28;20569;-57
2021/06/02 11:11:48;;;;;;;6.03;3.93;;;26.20;82.00;;;;;;5023229;28;20452;-57
2021/06/02 11:14:27;;;;;;;3.60;3.40;;;26.20;83.80;;;;;;5031426;28;21017;-57
2021/06/02 11:17:18;;;;;;;4.97;3.80;;;26.30;83.90;;;;;;5032423;28;20475;-57
2021/06/02 11:19:53;;;;;;;7.33;3.70;;;26.80;86.10;;;;;;5012571;28;20891;-57
2021/06/02 11:22:25;;;;;;;9.17;3.90;;;26.80;90.10;;;;;;5031310;28;20444;-58
2021/06/02 11:24:56;;;;;;;3.57;3.27;;;26.40;90.00;;;;;;5031322;28;20873;-57
2021/06/02 11:27:44;;;;;;;4.30;3.50;;;26.10;87.40;;;;;;5032247;28;20816;-57
2021/06/02 11:30:22;;;;;;;5.47;3.70;;;26.30;82.10;;;;;;5031656;28;20464;-57
2021/06/02 11:33:12;;;;;;;5.00;3.60;;;26.30;84.80;;;;;;5031818;28;20456;-57
2021/06/02 11:35:59;;;;;;;5.33;4.10;;;25.80;85.80;;;;;;5031320;28;20481;-57
2021/06/02 11:38:27;;;;;;;6.67;3.97;;;25.70;86.30;;;;;;5031850;28;20448;-57
2021/06/02 11:40:55;;;;;;;4.50;4.20;;;25.70;86.60;;;;;;5031111;28;20487;-57
2021/06/02 11:43:21;;;;;;;11.83;5.37;;;25.80;81.90;;;;;;5031455;28;20448;-57
2021/06/02 11:45:55;;;;;;;5.03;4.63;;;26.10;86.70;;;;;;5029721;28;20457;-58
2021/06/02 11:48:33;;;;;;;5.10;4.60;;;25.90;87.30;;;;;;5023070;28;20550;-57
2021/06/02 11:51:04;;;;;;;3.83;3.53;;;25.60;86.90;;;;;;5029279;28;20453;-57
2021/06/02 11:53:44;;;;;;;7.40;6.70;;;25.70;82.50;;;;;;5013042;28;20876;-57
2021/06/02 11:56:12;;;;;;;5.90;5.40;;;25.50;85.20;;;;;;5015996;28;20488;-57
2021/06/02 11:58:39;;;;;;;8.30;3.93;;;25.40;85.60;;;;;;5011695;28;20971;-57
2021/06/02 12:01:07;;;;;;;5.07;4.57;;;25.30;84.70;;;;;;5011739;28;20450;-57
2021/06/02 12:03:34;;;;;;;8.23;5.50;;;25.20;84.90;;;;;;5011351;28;20458;-56
2021/06/02 12:06:00;;;;;;;5.63;5.13;;;24.80;82.40;;;;;;5017101;28;20445;-57
2021/06/02 12:08:27;;;;;;;3.57;3.27;;;25.00;82.20;;;;;;5011945;28;20504;-56
2021/06/02 12:10:57;;;;;;;4.60;3.40;;;25.60;81.30;;;;;;5011744;28;20474;-57
2021/06/02 12:13:26;;;;;;;5.47;2.87;;;26.20;77.40;;;;;;5011475;28;20454;-56
2021/06/02 12:15:56;;;;;;;4.20;3.70;;;26.70;82.80;;;;;;5012514;28;20477;-56
2021/06/02 12:18:40;;;;;;;3.00;2.80;;;26.40;80.80;;;;;;5011754;28;20457;-57
2021/06/02 12:21:12;;;;;;;5.93;3.53;;;26.00;75.70;;;;;;5011798;28;20449;-56
2021/06/02 12:23:54;;;;;;;3.90;3.33;;;25.60;76.80;;;;;;5011545;28;20468;-56
2021/06/02 12:26:26;;;;;;;4.00;3.50;;;25.40;83.50;;;;;;5026361;28;20449;-56
2021/06/02 12:28:54;;;;;;;3.40;3.20;;;25.30;82.80;;;;;;5031409;28;20452;-56
2021/06/02 12:31:34;;;;;;;5.00;3.37;;;25.30;83.30;;;;;;5031105;28;20453;-57
2021/06/02 12:34:11;;;;;;;5.17;3.40;;;25.30;87.50;;;;;;5030592;28;20448;-56
2021/06/02 12:36:41;;;;;;;3.60;3.30;;;25.70;79.80;;;;;;5022061;28;20834;-58
2021/06/02 12:39:10;;;;;;;3.93;3.63;;;26.10;77.80;;;;;;5030735;28;20465;-58
2021/06/02 12:41:37;;;;;;;4.43;4.13;;;26.60;79.00;;;;;;5030597;28;20476;-58
2021/06/02 12:44:05;;;;;;;4.03;3.73;;;26.80;77.80;;;;;;5030504;28;20889;-57
2021/06/02 12:46:32;;;;;;;2.67;2.57;;;27.10;70.00;;;;;;5029423;28;20495;-57
2021/06/02 12:49:01;;;;;;;3.00;2.70;;;27.20;70.20;;;;;;5011284;28;20481;-56
2021/06/02 12:51:28;;;;;;;4.37;2.70;;;26.90;67.10;;;;;;5011186;28;20491;-56
2021/06/02 12:53:55;;;;;;;4.13;3.30;;;26.80;69.10;;;;;;5019189;28;20463;-57
2021/06/02 12:56:25;;;;;;;4.20;2.67;;;26.50;72.20;;;;;;5031233;28;20612;-56
2021/06/02 12:58:53;;;;;;;3.23;2.70;;;26.50;78.50;;;;;;5027912;28;20449;-57
2021/06/02 13:01:20;;;;;;;4.30;2.50;;;26.00;75.10;;;;;;5011050;28;20528;-57
2021/06/02 13:03:49;;;;;;;2.70;2.50;;;25.90;73.20;;;;;;5018782;28;20452;-57
2021/06/02 13:06:20;;;;;;;2.70;2.30;;;26.20;70.70;;;;;;5034680;28;20948;-58
2021/06/02 13:08:49;;;;;;;5.37;2.43;;;26.40;71.90;;;;;;5034722;28;20457;-57
2021/06/02 13:11:26;;;;;;;3.17;2.20;;;26.60;67.30;;;;;;5034774;28;20456;-58
2021/06/02 13:13:53;;;;;;;2.67;2.43;;;26.60;70.10;;;;;;5027290;28;20457;-57
2021/06/02 13:16:21;;;;;;;2.50;2.30;;;26.30;72.60;;;;;;5014691;28;20485;-58
2021/06/02 13:18:59;;;;;;;5.20;2.80;;;26.20;72.50;;;;;;5014804;28;20857;-57
2021/06/02 13:21:30;;;;;;;2.90;2.00;;;26.30;70.20;;;;;;5014983;28;20449;-57
2021/06/02 13:24:17;;;;;;;2.33;2.07;;;26.30;65.40;;;;;;5017780;28;20461;-57
2021/06/02 13:26:46;;;;;;;2.80;2.10;;;25.80;70.20;;;;;;5014680;28;20438;-57
2021/06/02 13:29:13;;;;;;;2.43;1.93;;;25.90;69.70;;;;;;5014801;28;20480;-57
2021/06/02 13:31:42;;;;;;;2.50;2.30;;;26.20;65.20;;;;;;5014364;28;20456;-57